createdAt,value
2015-12-14T00:00:07.278Z,73760
2015-12-14T00:00:19.667Z,73764
2015-12-14T00:00:31.921Z,73760
2015-12-14T00:00:44.322Z,73764
2015-12-14T00:00:56.572Z,73762
2015-12-14T00:01:08.838Z,73762
2015-12-14T00:01:21.056Z,73759
2015-12-14T00:01:33.418Z,73761
2015-12-14T00:01:45.840Z,73762
2015-12-14T00:01:58.199Z,73764
2015-12-14T00:02:10.543Z,73761
2015-12-14T00:02:22.918Z,73761
2015-12-14T00:02:35.281Z,73765
2015-12-14T00:02:47.641Z,73763
2015-12-14T00:03:00.000Z,73768
2015-12-14T00:03:12.375Z,73762
2015-12-14T00:03:24.734Z,73761
2015-12-14T00:03:37.097Z,73767
2015-12-14T00:03:49.456Z,73763
2015-12-14T00:04:01.815Z,73763
2015-12-14T00:04:14.190Z,73760
2015-12-14T00:04:26.550Z,73769
2015-12-14T00:04:38.927Z,73759
2015-12-14T00:04:51.302Z,73765
2015-12-14T00:05:03.692Z,73763
2015-12-14T00:05:16.083Z,73766
2015-12-14T00:05:28.474Z,73764
2015-12-14T00:05:40.867Z,73762
2015-12-14T00:05:53.258Z,73762
2015-12-14T00:06:05.664Z,73767
2015-12-14T00:06:18.070Z,73761
2015-12-14T00:06:30.461Z,73759
2015-12-14T00:06:42.839Z,73765
2015-12-14T00:06:55.198Z,73767
2015-12-14T00:07:07.558Z,73762
2015-12-14T00:07:19.933Z,73763
2015-12-14T00:07:32.292Z,73764
2015-12-14T00:07:44.498Z,73760
2015-12-14T00:07:56.858Z,73763
2015-12-14T00:08:09.217Z,73764
2015-12-14T00:08:21.576Z,73763
2015-12-14T00:08:33.951Z,73763
2015-12-14T00:08:46.313Z,73763
2015-12-14T00:08:58.672Z,73764
2015-12-14T00:09:11.032Z,73765
2015-12-14T00:09:23.391Z,73763
2015-12-14T00:09:35.766Z,73765
2015-12-14T00:09:48.144Z,73758
2015-12-14T00:09:59.894Z,73767
2015-12-14T00:10:12.269Z,73763
2015-12-14T00:10:24.644Z,73765
2015-12-14T00:10:36.191Z,73765
2015-12-14T00:10:48.584Z,73762
2015-12-14T00:11:00.975Z,73764
2015-12-14T00:11:13.366Z,73760
2015-12-14T00:11:25.756Z,73765
2015-12-14T00:11:38.131Z,73761
2015-12-14T00:11:50.477Z,73762
2015-12-14T00:12:02.821Z,73756
2015-12-14T00:12:15.180Z,73764
2015-12-14T00:12:27.540Z,73761
2015-12-14T00:12:39.915Z,73764
2015-12-14T00:12:52.277Z,73759
2015-12-14T00:13:04.636Z,73764
2015-12-14T00:13:16.996Z,73757
2015-12-14T00:13:29.371Z,73763
2015-12-14T00:13:41.730Z,73761
2015-12-14T00:13:54.092Z,73761
2015-12-14T00:14:06.452Z,73765
2015-12-14T00:14:18.811Z,73761
2015-12-14T00:14:31.186Z,73761
2015-12-14T00:14:43.546Z,73752
2015-12-14T00:14:55.923Z,73767
2015-12-14T00:15:08.282Z,73761
2015-12-14T00:15:20.657Z,73758
2015-12-14T00:15:33.063Z,73760
2015-12-14T00:15:45.438Z,73757
2015-12-14T00:15:57.847Z,73761
2015-12-14T00:16:10.254Z,73753
2015-12-14T00:16:22.644Z,73766
2015-12-14T00:16:35.051Z,73762
2015-12-14T00:16:47.426Z,73762
2015-12-14T00:16:59.818Z,73759
2015-12-14T00:17:12.178Z,73760
2015-12-14T00:17:24.537Z,73762
2015-12-14T00:17:36.896Z,73760
2015-12-14T00:17:49.240Z,73761
2015-12-14T00:18:01.603Z,73764
2015-12-14T00:18:13.963Z,73757
2015-12-14T00:18:26.322Z,73766
2015-12-14T00:18:38.682Z,73762
2015-12-14T00:18:51.041Z,73753
2015-12-14T00:19:03.450Z,73768
2015-12-14T00:19:15.825Z,73758
2015-12-14T00:19:28.185Z,73756
2015-12-14T00:19:40.544Z,73769
2015-12-14T00:19:52.919Z,73764
2015-12-14T00:20:05.296Z,73761
2015-12-14T00:20:17.671Z,73762
2015-12-14T00:20:30.030Z,73771
2015-12-14T00:20:42.421Z,73760
2015-12-14T00:20:54.812Z,73766
2015-12-14T00:21:07.205Z,73766
2015-12-14T00:21:19.611Z,73763
2015-12-14T00:21:32.002Z,73768
2015-12-14T00:21:44.393Z,73761
2015-12-14T00:21:56.783Z,73768
2015-12-14T00:22:09.160Z,73765
2015-12-14T00:22:21.535Z,73768
2015-12-14T00:22:33.895Z,73770
2015-12-14T00:22:45.551Z,73758
2015-12-14T00:22:57.192Z,73766
2015-12-14T00:23:09.554Z,73766
2015-12-14T00:23:21.913Z,73761
2015-12-14T00:23:34.273Z,73771
2015-12-14T00:23:46.632Z,73767
2015-12-14T00:23:58.991Z,73752
2015-12-14T00:24:11.369Z,73768
2015-12-14T00:24:23.729Z,73768
2015-12-14T00:24:36.088Z,73757
2015-12-14T00:24:48.448Z,73762
2015-12-14T00:25:00.807Z,73770
2015-12-14T00:25:13.185Z,73760
2015-12-14T00:25:25.544Z,73760
2015-12-14T00:25:37.919Z,73770
2015-12-14T00:25:50.294Z,73757
2015-12-14T00:26:02.669Z,73755
2015-12-14T00:26:15.078Z,73765
2015-12-14T00:26:27.453Z,73756
2015-12-14T00:26:39.687Z,73764
2015-12-14T00:26:52.078Z,73765
2015-12-14T00:27:04.468Z,73753
2015-12-14T00:27:16.877Z,73765
2015-12-14T00:27:29.252Z,73762
2015-12-14T00:27:41.674Z,73758
2015-12-14T00:27:54.018Z,73764
2015-12-14T00:28:06.362Z,73758
2015-12-14T00:28:18.724Z,73759
2015-12-14T00:28:30.380Z,73767
2015-12-14T00:28:42.740Z,73760
2015-12-14T00:28:55.130Z,73752
2015-12-14T00:29:07.474Z,73767
2015-12-14T00:29:19.837Z,73759
2015-12-14T00:29:32.196Z,73762
2015-12-14T00:29:44.571Z,73766
2015-12-14T00:29:56.915Z,73757
2015-12-14T00:30:09.274Z,73761
2015-12-14T00:30:21.636Z,73761
2015-12-14T00:30:34.011Z,73764
2015-12-14T00:30:46.371Z,73764
2015-12-14T00:30:58.746Z,73766
2015-12-14T00:31:10.402Z,73759
2015-12-14T00:31:22.780Z,73767
2015-12-14T00:31:35.171Z,73771
2015-12-14T00:31:47.561Z,73755
2015-12-14T00:31:59.952Z,73765
2015-12-14T00:32:12.343Z,73759
2015-12-14T00:32:24.736Z,73767
2015-12-14T00:32:37.127Z,73768
2015-12-14T00:32:49.517Z,73765
2015-12-14T00:33:01.924Z,73767
2015-12-14T00:33:14.283Z,73769
2015-12-14T00:33:26.629Z,73764
2015-12-14T00:33:38.988Z,73766
2015-12-14T00:33:51.332Z,73765
2015-12-14T00:34:03.707Z,73765
2015-12-14T00:34:16.051Z,73767
2015-12-14T00:34:28.413Z,73767
2015-12-14T00:34:40.757Z,73772
2015-12-14T00:34:53.116Z,73762
2015-12-14T00:35:05.476Z,73760
2015-12-14T00:35:17.835Z,73769
2015-12-14T00:35:30.197Z,73763
2015-12-14T00:35:42.557Z,73765
2015-12-14T00:35:54.900Z,73759
2015-12-14T00:36:07.291Z,73764
2015-12-14T00:36:19.650Z,73759
2015-12-14T00:36:32.027Z,73764
2015-12-14T00:36:44.387Z,73766
2015-12-14T00:36:56.074Z,73762
2015-12-14T00:37:08.449Z,73765
2015-12-14T00:37:20.137Z,73767
2015-12-14T00:37:32.515Z,73764
2015-12-14T00:37:44.905Z,73761
2015-12-14T00:37:57.296Z,73764
2015-12-14T00:38:09.687Z,73760
2015-12-14T00:38:22.077Z,73759
2015-12-14T00:38:34.502Z,73759
2015-12-14T00:38:46.862Z,73762
2015-12-14T00:38:59.221Z,73758
2015-12-14T00:39:11.580Z,73761
2015-12-14T00:39:23.940Z,73760
2015-12-14T00:39:36.302Z,73759
2015-12-14T00:39:48.661Z,73756
2015-12-14T00:40:01.021Z,73761
2015-12-14T00:40:13.380Z,73760
2015-12-14T00:40:25.740Z,73757
2015-12-14T00:40:38.101Z,73756
2015-12-14T00:40:50.460Z,73759
2015-12-14T00:41:02.820Z,73760
2015-12-14T00:41:15.179Z,73757
2015-12-14T00:41:27.538Z,73760
2015-12-14T00:41:39.932Z,73756
2015-12-14T00:41:52.307Z,73761
2015-12-14T00:42:04.666Z,73754
2015-12-14T00:42:17.041Z,73765
2015-12-14T00:42:29.432Z,73755
2015-12-14T00:42:41.810Z,73762
2015-12-14T00:42:54.201Z,73759
2015-12-14T00:43:06.591Z,73753
2015-12-14T00:43:18.998Z,73759
2015-12-14T00:43:31.388Z,73755
2015-12-14T00:43:43.766Z,73764
2015-12-14T00:43:56.126Z,73756
2015-12-14T00:44:08.485Z,73752
2015-12-14T00:44:20.829Z,73759
2015-12-14T00:44:33.172Z,73746
2015-12-14T00:44:45.535Z,73760
2015-12-14T00:44:57.894Z,73754
2015-12-14T00:45:10.254Z,73764
2015-12-14T00:45:22.613Z,73761
2015-12-14T00:45:34.957Z,73757
2015-12-14T00:45:47.318Z,73750
2015-12-14T00:45:59.677Z,73764
2015-12-14T00:46:12.037Z,73757
2015-12-14T00:46:24.396Z,73759
2015-12-14T00:46:36.756Z,73766
2015-12-14T00:46:49.118Z,73754
2015-12-14T00:47:01.493Z,73768
2015-12-14T00:47:13.899Z,73760
2015-12-14T00:47:26.274Z,73761
2015-12-14T00:47:38.634Z,73763
2015-12-14T00:47:51.027Z,73759
2015-12-14T00:48:03.418Z,73761
2015-12-14T00:48:15.793Z,73753
2015-12-14T00:48:28.183Z,73760
2015-12-14T00:48:40.574Z,73762
2015-12-14T00:48:52.968Z,73758
2015-12-14T00:49:05.327Z,73760
2015-12-14T00:49:17.686Z,73766
2015-12-14T00:49:30.030Z,73756
2015-12-14T00:49:42.390Z,73765
2015-12-14T00:49:54.751Z,73761
2015-12-14T00:50:07.110Z,73749
2015-12-14T00:50:19.470Z,73759
2015-12-14T00:50:31.829Z,73757
2015-12-14T00:50:44.173Z,73754
2015-12-14T00:50:56.535Z,73766
2015-12-14T00:51:08.910Z,73758
2015-12-14T00:51:21.270Z,73757
2015-12-14T00:51:33.629Z,73765
2015-12-14T00:51:45.990Z,73763
2015-12-14T00:51:58.350Z,73758
2015-12-14T00:52:10.725Z,73765
2015-12-14T00:52:23.100Z,73756
2015-12-14T00:52:35.459Z,73760
2015-12-14T00:52:47.821Z,73764
2015-12-14T00:53:00.212Z,73758
2015-12-14T00:53:12.587Z,73757
2015-12-14T00:53:24.978Z,73764
2015-12-14T00:53:37.368Z,73758
2015-12-14T00:53:49.779Z,73763
2015-12-14T00:54:02.169Z,73766
2015-12-14T00:54:14.560Z,73761
2015-12-14T00:54:26.950Z,73753
2015-12-14T00:54:39.341Z,73768
2015-12-14T00:54:51.687Z,73759
2015-12-14T00:55:04.046Z,73756
2015-12-14T00:55:16.406Z,73766
2015-12-14T00:55:28.765Z,73763
2015-12-14T00:55:41.124Z,73757
2015-12-14T00:55:53.487Z,73768
2015-12-14T00:56:05.846Z,73763
2015-12-14T00:56:18.205Z,73754
2015-12-14T00:56:30.565Z,73759
2015-12-14T00:56:42.924Z,73761
2015-12-14T00:56:55.287Z,73760
2015-12-14T00:57:07.646Z,73761
2015-12-14T00:57:20.021Z,73758
2015-12-14T00:57:32.396Z,73759
2015-12-14T00:57:44.771Z,73763
2015-12-14T00:57:56.429Z,73761
2015-12-14T00:58:08.804Z,73754
2015-12-14T00:58:21.179Z,73757
2015-12-14T00:58:33.570Z,73764
2015-12-14T00:58:45.960Z,73755
2015-12-14T00:58:58.354Z,73764
2015-12-14T00:59:10.745Z,73758
2015-12-14T00:59:23.135Z,73758
2015-12-14T00:59:35.526Z,73767
2015-12-14T00:59:47.932Z,73757
2015-12-14T01:00:00.153Z,73756
2015-12-14T01:00:12.544Z,73762
2015-12-14T01:00:24.903Z,73756
2015-12-14T01:00:37.247Z,73755
2015-12-14T01:00:49.606Z,73761
2015-12-14T01:01:01.968Z,73762
2015-12-14T01:01:14.328Z,73757
2015-12-14T01:01:26.687Z,73758
2015-12-14T01:01:39.047Z,73758
2015-12-14T01:01:51.406Z,73763
2015-12-14T01:02:03.784Z,73757
2015-12-14T01:02:16.143Z,73758
2015-12-14T01:02:28.487Z,73757
2015-12-14T01:02:40.846Z,73764
2015-12-14T01:02:53.237Z,73758
2015-12-14T01:03:05.459Z,73757
2015-12-14T01:03:17.818Z,73761
2015-12-14T01:03:30.209Z,73755
2015-12-14T01:03:42.568Z,73763
2015-12-14T01:03:54.974Z,73760
2015-12-14T01:04:07.352Z,73753
2015-12-14T01:04:19.759Z,73756
2015-12-14T01:04:32.118Z,73758
2015-12-14T01:04:44.477Z,73760
2015-12-14T01:04:56.852Z,73757
2015-12-14T01:05:09.214Z,73757
2015-12-14T01:05:21.573Z,73758
2015-12-14T01:05:33.948Z,73750
2015-12-14T01:05:46.292Z,73761
2015-12-14T01:05:58.667Z,73755
2015-12-14T01:06:11.029Z,73759
2015-12-14T01:06:23.404Z,73764
2015-12-14T01:06:35.764Z,73757
2015-12-14T01:06:48.107Z,73761
2015-12-14T01:07:00.467Z,73754
2015-12-14T01:07:12.829Z,73763
2015-12-14T01:07:25.204Z,73760
2015-12-14T01:07:37.579Z,73760
2015-12-14T01:07:49.782Z,73760
2015-12-14T01:08:02.157Z,73759
2015-12-14T01:08:14.551Z,73764
2015-12-14T01:08:26.942Z,73756
2015-12-14T01:08:39.332Z,73759
2015-12-14T01:08:51.723Z,73757
2015-12-14T01:09:04.113Z,73749
2015-12-14T01:09:16.490Z,73767
2015-12-14T01:09:28.850Z,73757
2015-12-14T01:09:41.209Z,73758
2015-12-14T01:09:52.850Z,73757
2015-12-14T01:10:05.209Z,73753
2015-12-14T01:10:17.573Z,73765
2015-12-14T01:10:29.932Z,73752
2015-12-14T01:10:42.291Z,73756
2015-12-14T01:10:54.651Z,73752
2015-12-14T01:11:07.010Z,73762
2015-12-14T01:11:18.653Z,73752
2015-12-14T01:11:31.012Z,73754
2015-12-14T01:11:43.215Z,73757
2015-12-14T01:11:55.559Z,73752
2015-12-14T01:12:07.934Z,73753
2015-12-14T01:12:20.312Z,73755
2015-12-14T01:12:32.687Z,73757
2015-12-14T01:12:45.062Z,73749
2015-12-14T01:12:57.437Z,73759
2015-12-14T01:13:09.828Z,73751
2015-12-14T01:13:22.221Z,73750
2015-12-14T01:13:34.612Z,73756
2015-12-14T01:13:47.002Z,73754
2015-12-14T01:13:59.393Z,73757
2015-12-14T01:14:11.784Z,73755
2015-12-14T01:14:24.177Z,73752
2015-12-14T01:14:36.599Z,73756
2015-12-14T01:14:48.943Z,73745
2015-12-14T01:15:01.302Z,73755
2015-12-14T01:15:13.662Z,73749
2015-12-14T01:15:26.008Z,73755
2015-12-14T01:15:38.368Z,73749
2015-12-14T01:15:50.712Z,73751
2015-12-14T01:16:03.071Z,73753
2015-12-14T01:16:15.415Z,73749
2015-12-14T01:16:27.776Z,73747
2015-12-14T01:16:40.135Z,73750
2015-12-14T01:16:52.495Z,73751
2015-12-14T01:17:04.854Z,73750
2015-12-14T01:17:17.214Z,73753
2015-12-14T01:17:29.591Z,73753
2015-12-14T01:17:41.950Z,73742
2015-12-14T01:17:53.606Z,73750
2015-12-14T01:18:05.981Z,73749
2015-12-14T01:18:18.341Z,73748
2015-12-14T01:18:30.735Z,73746
2015-12-14T01:18:43.141Z,73745
2015-12-14T01:18:55.516Z,73752
2015-12-14T01:19:07.907Z,73742
2015-12-14T01:19:20.298Z,73756
2015-12-14T01:19:32.691Z,73759
2015-12-14T01:19:45.082Z,73751
2015-12-14T01:19:57.488Z,73755
2015-12-14T01:20:09.848Z,73750
2015-12-14T01:20:22.207Z,73758
2015-12-14T01:20:34.568Z,73748
2015-12-14T01:20:46.928Z,73753
2015-12-14T01:20:59.287Z,73759
2015-12-14T01:21:11.646Z,73752
2015-12-14T01:21:24.006Z,73755
2015-12-14T01:21:36.368Z,73751
2015-12-14T01:21:48.728Z,73753
2015-12-14T01:22:01.087Z,73752
2015-12-14T01:22:40.948Z,73754
2015-12-14T01:22:53.323Z,73753
2015-12-14T01:23:05.683Z,73747
2015-12-14T01:23:18.058Z,73757
2015-12-14T01:23:30.433Z,73753
2015-12-14T01:23:42.811Z,73754
2015-12-14T01:23:55.186Z,73747
2015-12-14T01:24:07.639Z,73755
2015-12-14T01:24:20.029Z,73755
2015-12-14T01:24:32.420Z,73750
2015-12-14T01:24:44.814Z,73758
2015-12-14T01:24:57.236Z,73753
2015-12-14T01:25:09.626Z,73753
2015-12-14T01:25:22.017Z,73754
2015-12-14T01:25:34.439Z,73745
2015-12-14T01:25:46.801Z,73756
2015-12-14T01:25:59.145Z,73747
2015-12-14T01:26:11.520Z,73760
2015-12-14T01:26:23.879Z,73751
2015-12-14T01:26:36.254Z,73756
2015-12-14T01:26:48.617Z,73756
2015-12-14T01:27:00.976Z,73751
2015-12-14T01:27:13.335Z,73760
2015-12-14T01:27:25.695Z,73752
2015-12-14T01:27:38.054Z,73756
2015-12-14T01:27:50.415Z,73748
2015-12-14T01:28:02.775Z,73755
2015-12-14T01:28:15.134Z,73756
2015-12-14T01:28:27.509Z,73749
2015-12-14T01:28:39.869Z,73759
2015-12-14T01:28:52.247Z,73748
2015-12-14T01:29:04.622Z,73759
2015-12-14T01:29:16.981Z,73756
2015-12-14T01:29:29.387Z,73750
2015-12-14T01:29:41.762Z,73756
2015-12-14T01:29:54.203Z,73757
2015-12-14T01:30:06.593Z,73754
2015-12-14T01:30:18.984Z,73758
2015-12-14T01:30:31.375Z,73747
2015-12-14T01:30:43.781Z,73754
2015-12-14T01:30:56.190Z,73755
2015-12-14T01:31:08.549Z,73758
2015-12-14T01:31:20.893Z,73754
2015-12-14T01:31:33.253Z,73758
2015-12-14T01:31:45.598Z,73755
2015-12-14T01:31:57.958Z,73748
2015-12-14T01:32:10.333Z,73759
2015-12-14T01:32:22.692Z,73753
2015-12-14T01:32:35.036Z,73759
2015-12-14T01:32:47.398Z,73757
2015-12-14T01:32:59.054Z,73753
2015-12-14T01:33:11.273Z,73758
2015-12-14T01:33:22.914Z,73755
2015-12-14T01:33:35.273Z,73757
2015-12-14T01:33:47.636Z,73755
2015-12-14T01:34:00.011Z,73758
2015-12-14T01:34:12.386Z,73759
2015-12-14T01:34:24.761Z,73753
2015-12-14T01:34:37.151Z,73755
2015-12-14T01:34:49.544Z,73751
2015-12-14T01:35:01.216Z,73756
2015-12-14T01:35:13.606Z,73749
2015-12-14T01:35:25.997Z,73763
2015-12-14T01:35:38.372Z,73754
2015-12-14T01:35:50.719Z,73757
2015-12-14T01:36:03.078Z,73759
2015-12-14T01:36:15.437Z,73749
2015-12-14T01:36:27.797Z,73757
2015-12-14T01:36:40.156Z,73752
2015-12-14T01:36:52.519Z,73756
2015-12-14T01:37:04.878Z,73754
2015-12-14T01:37:17.237Z,73744
2015-12-14T01:37:29.628Z,73756
2015-12-14T01:37:42.019Z,73750
2015-12-14T01:37:54.364Z,73756
2015-12-14T01:38:06.724Z,73758
2015-12-14T01:38:19.083Z,73752
2015-12-14T01:38:31.458Z,73760
2015-12-14T01:38:43.817Z,73751
2015-12-14T01:38:56.180Z,73759
2015-12-14T01:39:08.555Z,73760
2015-12-14T01:39:20.930Z,73746
2015-12-14T01:39:33.320Z,73759
2015-12-14T01:39:45.711Z,73751
2015-12-14T01:39:58.089Z,73756
2015-12-14T01:40:10.495Z,73751
2015-12-14T01:40:22.886Z,73754
2015-12-14T01:40:35.277Z,73751
2015-12-14T01:40:47.667Z,73754
2015-12-14T01:40:59.905Z,73753
2015-12-14T01:41:11.545Z,73755
2015-12-14T01:41:23.905Z,73754
2015-12-14T01:41:36.264Z,73752
2015-12-14T01:41:48.623Z,73748
2015-12-14T01:42:00.986Z,73752
2015-12-14T01:42:13.345Z,73754
2015-12-14T01:42:25.720Z,73753
2015-12-14T01:42:38.079Z,73749
2015-12-14T01:42:50.423Z,73756
2015-12-14T01:43:02.800Z,73750
2015-12-14T01:43:15.160Z,73747
2015-12-14T01:43:27.519Z,73755
2015-12-14T01:43:39.878Z,73746
2015-12-14T01:43:52.253Z,73756
2015-12-14T01:44:04.631Z,73748
2015-12-14T01:44:16.991Z,73748
2015-12-14T01:44:28.647Z,73755
2015-12-14T01:44:41.022Z,73751
2015-12-14T01:44:53.413Z,73753
2015-12-14T01:45:05.806Z,73750
2015-12-14T01:45:18.212Z,73748
2015-12-14T01:45:30.587Z,73751
2015-12-14T01:45:42.978Z,73749
2015-12-14T01:45:55.322Z,73752
2015-12-14T01:46:07.683Z,73753
2015-12-14T01:46:19.886Z,73748
2015-12-14T01:46:32.246Z,73758
2015-12-14T01:46:44.605Z,73749
2015-12-14T01:46:56.949Z,73748
2015-12-14T01:47:09.171Z,73755
2015-12-14T01:47:20.811Z,73750
2015-12-14T01:47:33.171Z,73757
2015-12-14T01:47:45.546Z,73749
2015-12-14T01:47:57.905Z,73753
2015-12-14T01:48:10.267Z,73752
2015-12-14T01:48:22.595Z,73751
2015-12-14T01:48:34.955Z,73753
2015-12-14T01:48:47.330Z,73745
2015-12-14T01:48:59.689Z,73756
2015-12-14T01:49:12.067Z,73748
2015-12-14T01:49:24.458Z,73753
2015-12-14T01:49:36.848Z,73758
2015-12-14T01:49:49.223Z,73749
2015-12-14T01:50:01.614Z,73753
2015-12-14T01:50:14.008Z,73744
2015-12-14T01:50:26.414Z,73757
2015-12-14T01:50:38.805Z,73755
2015-12-14T01:50:51.195Z,73749
2015-12-14T01:51:03.555Z,73754
2015-12-14T01:51:15.916Z,73747
2015-12-14T01:51:28.275Z,73756
2015-12-14T01:51:40.635Z,73757
2015-12-14T01:51:52.994Z,73749
2015-12-14T01:52:05.353Z,73756
2015-12-14T01:52:17.700Z,73749
2015-12-14T01:52:30.075Z,73751
2015-12-14T01:52:42.419Z,73757
2015-12-14T01:52:54.794Z,73752
2015-12-14T01:53:07.153Z,73759
2015-12-14T01:53:19.547Z,73755
2015-12-14T01:53:31.906Z,73752
2015-12-14T01:53:44.266Z,73758
2015-12-14T01:53:56.641Z,73752
2015-12-14T01:54:09.016Z,73755
2015-12-14T01:54:21.378Z,73757
2015-12-14T01:54:33.753Z,73749
2015-12-14T01:54:46.128Z,73755
2015-12-14T01:54:58.503Z,73748
2015-12-14T01:55:10.894Z,73755
2015-12-14T01:55:23.287Z,73757
2015-12-14T01:55:35.678Z,73756
2015-12-14T01:55:48.069Z,73756
2015-12-14T01:56:00.459Z,73752
2015-12-14T01:56:12.819Z,73756
2015-12-14T01:56:25.180Z,73749
2015-12-14T01:56:37.539Z,73756
2015-12-14T01:56:49.899Z,73752
2015-12-14T01:57:02.258Z,73753
2015-12-14T01:57:14.617Z,73758
2015-12-14T01:57:26.980Z,73749
2015-12-14T01:57:39.339Z,73756
2015-12-14T01:57:51.699Z,73750
2015-12-14T01:58:04.089Z,73749
2015-12-14T01:58:16.449Z,73753
2015-12-14T01:58:28.811Z,73741
2015-12-14T01:58:41.170Z,73755
2015-12-14T01:58:53.514Z,73754
2015-12-14T01:59:05.889Z,73752
2015-12-14T01:59:18.264Z,73753
2015-12-14T01:59:30.641Z,73746
2015-12-14T01:59:43.032Z,73757
2015-12-14T01:59:55.407Z,73747
2015-12-14T02:00:07.641Z,73751
2015-12-14T02:00:20.032Z,73752
2015-12-14T02:00:32.426Z,73743
2015-12-14T02:00:44.817Z,73754
2015-12-14T02:00:57.223Z,73747
2015-12-14T02:01:09.598Z,73754
2015-12-14T02:01:21.989Z,73747
2015-12-14T02:01:34.366Z,73746
2015-12-14T02:01:46.725Z,73750
2015-12-14T02:01:59.085Z,73737
2015-12-14T02:02:11.288Z,73752
2015-12-14T02:02:23.647Z,73744
2015-12-14T02:02:36.009Z,73750
2015-12-14T02:02:48.353Z,73748
2015-12-14T02:03:00.713Z,73745
2015-12-14T02:03:13.072Z,73749
2015-12-14T02:03:25.431Z,73739
2015-12-14T02:03:37.824Z,73751
2015-12-14T02:03:50.168Z,73748
2015-12-14T02:04:02.527Z,73747
2015-12-14T02:04:14.886Z,73745
2015-12-14T02:04:27.261Z,73739
2015-12-14T02:04:39.624Z,73747
2015-12-14T02:04:51.999Z,73739
2015-12-14T02:05:04.374Z,73745
2015-12-14T02:05:16.749Z,73744
2015-12-14T02:05:29.139Z,73744
2015-12-14T02:05:41.533Z,73756
2015-12-14T02:05:53.924Z,73738
2015-12-14T02:06:06.314Z,73747
2015-12-14T02:06:18.721Z,73743
2015-12-14T02:06:31.111Z,73752
2015-12-14T02:06:43.505Z,73747
2015-12-14T02:06:55.911Z,73743
2015-12-14T02:07:08.255Z,73749
2015-12-14T02:07:20.614Z,73746
2015-12-14T02:07:32.974Z,73742
2015-12-14T02:07:45.335Z,73735
2015-12-14T02:07:57.679Z,73744
2015-12-14T02:08:10.054Z,73742
2015-12-14T02:08:22.413Z,73738
2015-12-14T02:08:34.772Z,73745
2015-12-14T02:08:47.166Z,73740
2015-12-14T02:08:59.541Z,73741
2015-12-14T02:09:11.885Z,73734
2015-12-14T02:09:24.260Z,73740
2015-12-14T02:09:36.635Z,73745
2015-12-14T02:09:48.997Z,73735
2015-12-14T02:10:01.357Z,73749
2015-12-14T02:10:13.732Z,73736
2015-12-14T02:10:26.107Z,73739
2015-12-14T02:10:38.482Z,73740
2015-12-14T02:10:50.852Z,73741
2015-12-14T02:11:03.242Z,73741
2015-12-14T02:11:15.633Z,73735
2015-12-14T02:11:28.023Z,73743
2015-12-14T02:11:40.398Z,73734
2015-12-14T02:11:52.783Z,73742
2015-12-14T02:12:05.189Z,73735
2015-12-14T02:12:17.580Z,73745
2015-12-14T02:12:30.033Z,73736
2015-12-14T02:12:42.377Z,73740
2015-12-14T02:12:54.729Z,73742
2015-12-14T02:13:07.089Z,73745
2015-12-14T02:13:19.448Z,73745
2015-12-14T02:13:31.807Z,73739
2015-12-14T02:13:44.151Z,73744
2015-12-14T02:13:56.503Z,73745
2015-12-14T02:14:08.863Z,73741
2015-12-14T02:14:21.238Z,73740
2015-12-14T02:14:33.597Z,73743
2015-12-14T02:14:45.957Z,73739
2015-12-14T02:14:58.310Z,73746
2015-12-14T02:15:10.669Z,73742
2015-12-14T02:15:23.044Z,73742
2015-12-14T02:15:35.419Z,73740
2015-12-14T02:15:47.779Z,73742
2015-12-14T02:16:00.152Z,73738
2015-12-14T02:16:12.527Z,73740
2015-12-14T02:16:24.917Z,73740
2015-12-14T02:16:37.339Z,73742
2015-12-14T02:16:49.714Z,73734
2015-12-14T02:17:01.948Z,73743
2015-12-14T02:17:14.338Z,73739
2015-12-14T02:17:26.729Z,73741
2015-12-14T02:17:39.119Z,73739
2015-12-14T02:17:51.510Z,73740
2015-12-14T02:18:03.853Z,73737
2015-12-14T02:18:16.212Z,73739
2015-12-14T02:18:28.572Z,73738
2015-12-14T02:18:40.931Z,73740
2015-12-14T02:18:53.290Z,73738
2015-12-14T02:19:05.650Z,73741
2015-12-14T02:19:18.009Z,73731
2015-12-14T02:19:30.368Z,73741
2015-12-14T02:19:42.728Z,73729
2015-12-14T02:19:55.087Z,73740
2015-12-14T02:20:07.446Z,73737
2015-12-14T02:20:19.805Z,73741
2015-12-14T02:20:32.164Z,73728
2015-12-14T02:20:44.524Z,73738
2015-12-14T02:20:56.899Z,73733
2015-12-14T02:21:09.260Z,73738
2015-12-14T02:21:21.635Z,73736
2015-12-14T02:21:34.041Z,73735
2015-12-14T02:21:46.432Z,73737
2015-12-14T02:21:58.823Z,73736
2015-12-14T02:22:11.214Z,73740
2015-12-14T02:22:23.605Z,73732
2015-12-14T02:22:35.995Z,73737
2015-12-14T02:22:48.370Z,73738
2015-12-14T02:23:00.745Z,73739
2015-12-14T02:23:13.122Z,73736
2015-12-14T02:23:25.482Z,73737
2015-12-14T02:23:37.826Z,73737
2015-12-14T02:23:50.185Z,73736
2015-12-14T02:24:02.544Z,73738
2015-12-14T02:24:14.905Z,73736
2015-12-14T02:24:27.264Z,73742
2015-12-14T02:24:39.623Z,73736
2015-12-14T02:24:51.983Z,73736
2015-12-14T02:25:04.342Z,73735
2015-12-14T02:25:16.704Z,73740
2015-12-14T02:25:29.063Z,73739
2015-12-14T02:25:41.422Z,73735
2015-12-14T02:25:53.782Z,73736
2015-12-14T02:26:06.141Z,73735
2015-12-14T02:26:18.535Z,73734
2015-12-14T02:26:30.910Z,73735
2015-12-14T02:26:43.285Z,73734
2015-12-14T02:26:55.660Z,73734
2015-12-14T02:27:08.050Z,73733
2015-12-14T02:27:20.443Z,73737
2015-12-14T02:27:32.834Z,73736
2015-12-14T02:27:45.224Z,73734
2015-12-14T02:27:56.896Z,73738
2015-12-14T02:28:09.287Z,73736
2015-12-14T02:28:21.680Z,73729
2015-12-14T02:28:34.055Z,73735
2015-12-14T02:28:46.415Z,73729
2015-12-14T02:28:58.774Z,73739
2015-12-14T02:29:11.133Z,73731
2015-12-14T02:29:23.479Z,73736
2015-12-14T02:29:35.839Z,73729
2015-12-14T02:29:48.198Z,73747
2015-12-14T02:30:00.557Z,73734
2015-12-14T02:30:12.214Z,73736
2015-12-14T02:30:24.575Z,73734
2015-12-14T02:30:36.934Z,73737
2015-12-14T02:30:49.325Z,73732
2015-12-14T02:31:01.669Z,73737
2015-12-14T02:31:14.028Z,73735
2015-12-14T02:31:26.375Z,73737
2015-12-14T02:31:38.750Z,73738
2015-12-14T02:31:51.125Z,73736
2015-12-14T02:32:03.515Z,73738
2015-12-14T02:32:15.875Z,73735
2015-12-14T02:32:28.252Z,73739
2015-12-14T02:32:40.642Z,73735
2015-12-14T02:32:53.033Z,73742
2015-12-14T02:33:05.408Z,73731
2015-12-14T02:33:17.814Z,73736
2015-12-14T02:33:30.207Z,73736
2015-12-14T02:33:42.598Z,73743
2015-12-14T02:33:54.988Z,73734
2015-12-14T02:34:07.379Z,73737
2015-12-14T02:34:19.738Z,73733
2015-12-14T02:34:32.100Z,73733
2015-12-14T02:34:44.459Z,73743
2015-12-14T02:34:56.818Z,73731
2015-12-14T02:35:09.178Z,73740
2015-12-14T02:35:21.553Z,73738
2015-12-14T02:35:33.931Z,73743
2015-12-14T02:35:46.290Z,73734
2015-12-14T02:35:58.634Z,73737
2015-12-14T02:36:11.009Z,73738
2015-12-14T02:36:23.228Z,73734
2015-12-14T02:36:35.590Z,73740
2015-12-14T02:36:47.934Z,73731
2015-12-14T02:37:00.293Z,73742
2015-12-14T02:37:11.246Z,73736
2015-12-14T02:37:23.637Z,73743
2015-12-14T02:37:35.998Z,73731
2015-12-14T02:37:48.358Z,73741
2015-12-14T02:38:00.748Z,73738
2015-12-14T02:38:13.139Z,73738
2015-12-14T02:38:24.811Z,73737
2015-12-14T02:38:37.221Z,73734
2015-12-14T02:38:49.643Z,73741
2015-12-14T02:39:02.033Z,73730
2015-12-14T02:39:14.424Z,73740
2015-12-14T02:39:26.830Z,73735